Time;durP1;ratioP1;P1;durP2;ratioP2;P2;SDS_P1;SDS_P2;PMS_P1;PMS_P2;Temp;Humidity;BMP_temperature;BMP_pressure;BME280_temperature;BME280_humidity;BME280_pressure;Samples;Min_cycle;Max_cycle;Signal;HPM_P1;HPM_P2
2021/12/23 00:00:59;;;;;;;;;9.00;9.00;;;;;16.63;48.83;101680.81;5069857;28;8783;-59
2021/12/23 00:03:25;;;;;;;;;7.25;7.25;;;;;16.61;48.59;101679.03;5069525;28;9638;-60
2021/12/23 00:05:53;;;;;;;;;8.25;7.25;;;;;16.61;48.75;101693.06;5071747;28;9553;-59
2021/12/23 00:08:18;;;;;;;;;5.00;5.00;;;;;16.62;48.87;101691.31;5073252;28;9613;-59
2021/12/23 00:10:44;;;;;;;;;9.75;9.25;;;;;16.60;48.80;101685.16;5073039;28;9478;-59
2021/12/23 00:13:09;;;;;;;;;9.75;9.75;;;;;16.54;48.55;101670.13;5073780;28;8877;-59
2021/12/23 00:15:50;;;;;;;;;9.00;9.00;;;;;16.62;48.84;101659.69;5073939;28;8783;-59
2021/12/23 00:18:40;;;;;;;;;8.75;8.00;;;;;16.61;48.76;101653.53;5072655;28;8780;-60
2021/12/23 00:23:51;;;;;;;;;8.25;8.25;;;;;16.57;48.60;101678.09;5072483;28;9416;-60
2021/12/23 00:26:16;;;;;;;;;9.00;7.25;;;;;16.61;48.86;101650.88;5073656;28;10119;-60
2021/12/23 00:28:45;;;;;;;;;8.25;8.25;;;;;16.61;48.46;101653.53;5073145;28;9672;-59
2021/12/23 00:31:10;;;;;;;;;8.50;8.50;;;;;16.59;48.57;101646.47;5073033;28;8874;-59
2021/12/23 00:33:36;;;;;;;;;11.25;8.50;;;;;16.57;48.60;101643.81;5073483;28;9741;-59
2021/12/23 00:36:04;;;;;;;;;10.25;10.25;;;;;16.59;48.82;101644.72;5072883;28;8848;-60
2021/12/23 00:38:34;;;;;;;;;8.00;8.00;;;;;16.58;48.54;101640.31;5072828;28;9541;-60
2021/12/23 00:41:02;;;;;;;;;8.75;8.75;;;;;16.57;48.83;101635.06;5072777;28;9535;-59
2021/12/23 00:43:28;;;;;;;;;9.00;8.00;;;;;16.59;48.81;101625.38;5073386;28;9585;-60
2021/12/23 00:45:54;;;;;;;;;9.25;9.25;;;;;16.58;48.61;101620.97;5072171;28;9397;-60
2021/12/23 00:48:19;;;;;;;;;11.25;8.75;;;;;16.54;48.64;101632.31;5073043;28;9491;-59
2021/12/23 00:50:53;;;;;;;;;7.25;7.25;;;;;16.58;48.81;101628.88;5073075;28;8782;-60
2021/12/23 00:53:23;;;;;;;;;9.00;9.00;;;;;16.58;48.85;101627.13;5072301;28;8771;-59
2021/12/23 00:55:52;;;;;;;;;4.00;4.00;;;;;16.62;48.66;101625.41;5072702;28;9691;-59
2021/12/23 00:58:19;;;;;;;;;10.00;8.75;;;;;16.60;48.51;101609.59;5072421;28;9548;-59
2021/12/23 01:00:45;;;;;;;;;10.50;8.75;;;;;16.55;48.64;101606.00;5072632;28;9561;-59
2021/12/23 01:03:11;;;;;;;;;6.50;6.25;;;;;16.59;48.79;101602.56;5072834;28;9679;-59
2021/12/23 01:05:37;;;;;;;;;7.25;6.50;;;;;16.55;48.69;101594.56;5071973;28;9623;-59
2021/12/23 01:08:03;;;;;;;;;6.00;6.00;;;;;16.57;49.17;101583.19;5072710;28;8756;-59
2021/12/23 01:10:32;;;;;;;;;7.00;6.00;;;;;16.56;49.11;101569.97;5072869;28;11355;-59
2021/12/23 01:13:01;;;;;;;;;8.00;7.50;;;;;16.55;48.91;101565.56;5071601;28;8762;-60
2021/12/23 01:18:07;;;;;;;;;7.25;7.25;;;;;16.57;49.22;101572.63;5071657;28;9689;-60
2021/12/23 01:20:35;;;;;;;;;9.00;9.00;;;;;16.59;49.20;101575.31;5071874;28;9590;-59
2021/12/23 01:23:02;;;;;;;;;9.00;8.50;;;;;16.60;49.27;101574.44;5072260;28;9563;-60
2021/12/23 01:25:29;;;;;;;;;11.25;9.50;;;;;16.57;48.98;101564.72;5072560;28;9550;-60
2021/12/23 01:27:54;;;;;;;;;10.50;8.00;;;;;16.62;49.22;101568.31;5071584;28;9548;-60
2021/12/23 01:30:23;;;;;;;;;6.50;6.50;;;;;16.57;49.33;101561.25;5072473;28;9610;-60
2021/12/23 01:32:49;;;;;;;;;9.25;7.50;;;;;16.58;49.13;101563.88;5071987;28;11394;-60
2021/12/23 01:35:16;;;;;;;;;7.25;7.00;;;;;16.57;49.15;101570.00;5071166;28;9839;-60
2021/12/23 01:37:42;;;;;;;;;8.25;7.25;;;;;16.56;49.31;101568.25;5071750;28;9642;-60
2021/12/23 01:40:09;;;;;;;;;6.25;6.25;;;;;16.55;49.16;101563.81;5072212;28;9541;-60
2021/12/23 01:42:34;;;;;;;;;8.00;8.00;;;;;16.57;49.05;101551.56;5071186;28;8776;-59
2021/12/23 01:45:00;;;;;;;;;8.00;6.50;;;;;16.53;49.19;101549.75;5071793;28;9387;-60
2021/12/23 01:47:26;;;;;;;;;7.25;7.25;;;;;16.54;49.20;101554.13;5071756;28;9632;-60
2021/12/23 01:49:52;;;;;;;;;7.25;5.75;;;;;16.55;49.18;101547.09;5071182;28;8787;-60
2021/12/23 01:52:17;;;;;;;;;7.00;7.00;;;;;16.57;49.18;101555.97;5072315;28;8779;-60
2021/12/23 01:54:43;;;;;;;;;7.00;7.00;;;;;16.55;49.47;101562.94;5071239;28;11362;-60
2021/12/23 01:57:12;;;;;;;;;7.00;6.00;;;;;16.53;49.24;101552.38;5072106;28;8814;-60
2021/12/23 01:59:37;;;;;;;;;7.25;7.25;;;;;16.55;49.37;101547.09;5072229;28;8783;-60
2021/12/23 02:02:02;;;;;;;;;7.50;7.50;;;;;16.58;49.41;101533.97;5070829;28;9489;-60
2021/12/23 02:04:28;;;;;;;;;8.25;8.25;;;;;16.58;49.04;101521.69;5072011;28;8815;-61
2021/12/23 02:06:53;;;;;;;;;8.75;7.75;;;;;16.55;49.33;101491.75;5071417;28;8784;-61
2021/12/23 02:09:24;;;;;;;;;6.00;6.00;;;;;16.58;49.48;101490.06;5070905;28;8775;-59
2021/12/23 02:11:52;;;;;;;;;8.00;8.00;;;;;16.57;49.59;101487.44;5071462;28;8853;-59
2021/12/23 02:14:18;;;;;;;;;9.00;8.00;;;;;16.57;49.50;101482.16;5071785;28;9384;-59
2021/12/23 02:16:44;;;;;;;;;7.67;7.67;;;;;16.55;49.54;101478.56;5070330;28;9321;-60
2021/12/23 02:19:18;;;;;;;;;7.00;7.00;;;;;16.51;49.29;101482.06;5071887;28;8780;-60
2021/12/23 02:21:45;;;;;;;;;7.33;7.00;;;;;16.53;49.62;101478.59;5071208;28;8760;-60
2021/12/23 02:24:10;;;;;;;;;7.33;6.33;;;;;16.58;49.13;101476.00;5069973;28;9277;-60
2021/12/23 02:26:41;;;;;;;;;7.33;7.33;;;;;16.53;49.53;101478.59;5071377;28;9289;-60
2021/12/23 02:29:09;;;;;;;;;9.00;9.00;;;;;16.49;49.41;101481.19;5070264;28;9505;-59
2021/12/23 02:31:36;;;;;;;;;8.00;8.00;;;;;16.49;49.92;101482.06;5070836;28;9248;-60
2021/12/23 02:34:03;;;;;;;;;8.25;8.00;;;;;16.52;49.43;101463.63;5071313;28;9561;-60
2021/12/23 02:36:30;;;;;;;;;7.25;7.25;;;;;16.55;49.33;101463.63;5071193;28;9551;-60
2021/12/23 02:38:56;;;;;;;;;8.75;8.75;;;;;16.49;49.50;101458.34;5070361;28;9592;-60
2021/12/23 02:41:21;;;;;;;;;7.00;7.00;;;;;16.56;49.48;101472.44;5071016;28;9484;-60
2021/12/23 02:43:47;;;;;;;;;9.75;9.75;;;;;16.52;49.43;101471.53;5070133;28;8917;-60
2021/12/23 02:46:13;;;;;;;;;8.00;7.00;;;;;16.51;49.58;101459.22;5071684;28;8791;-60
2021/12/23 02:48:39;;;;;;;;;7.25;6.25;;;;;16.48;49.51;101464.47;5070950;28;8768;-60
2021/12/23 02:51:11;;;;;;;;;8.00;6.33;;;;;16.55;49.38;101468.91;5070433;28;9539;-60
2021/12/23 02:53:38;;;;;;;;;5.33;5.33;;;;;16.52;49.36;101466.25;5071245;28;9427;-60
2021/12/23 02:56:08;;;;;;;;;7.67;6.67;;;;;16.58;49.30;101462.81;5071414;28;9385;-60
2021/12/23 02:58:33;;;;;;;;;9.75;8.75;;;;;16.53;49.27;101456.59;5070215;28;9240;-59
2021/12/23 03:01:00;;;;;;;;;5.75;5.75;;;;;16.50;49.52;101438.09;5071202;28;9501;-60
2021/12/23 03:03:26;;;;;;;;;7.25;7.25;;;;;16.47;49.57;101433.72;5071030;28;8924;-60
2021/12/23 03:05:53;;;;;;;;;9.75;7.00;;;;;16.50;49.72;101427.56;5069870;28;9520;-60
2021/12/23 03:08:29;;;;;;;;;6.00;6.00;;;;;16.50;49.70;101425.81;5071098;28;8775;-60
2021/12/23 03:10:54;;;;;;;;;6.75;6.75;;;;;16.52;49.68;101423.19;5070952;28;9469;-60
2021/12/23 03:13:20;;;;;;;;;7.75;7.75;;;;;16.47;49.61;101427.56;5070333;28;10279;-60
2021/12/23 03:15:45;;;;;;;;;8.00;8.00;;;;;16.47;49.52;101435.47;5071349;28;8771;-60
2021/12/23 03:18:11;;;;;;;;;9.00;9.00;;;;;16.46;49.66;101415.28;5071340;28;8796;-60
2021/12/23 03:20:36;;;;;;;;;8.00;8.00;;;;;16.49;49.70;101415.28;5070172;28;8784;-60
2021/12/23 03:23:01;;;;;;;;;9.50;7.75;;;;;16.51;49.43;101405.63;5070586;28;8821;-60
2021/12/23 03:25:26;;;;;;;;;9.50;9.00;;;;;16.53;49.53;101388.06;5070744;28;8837;-60
2021/12/23 03:27:52;;;;;;;;;7.50;7.50;;;;;16.53;49.73;101375.78;5070685;28;8768;-60
2021/12/23 03:30:17;;;;;;;;;8.75;7.00;;;;;16.49;49.71;101352.91;5071111;28;8768;-60
2021/12/23 03:32:45;;;;;;;;;10.75;9.00;;;;;16.47;49.85;101367.81;5070580;28;8774;-60
2021/12/23 03:35:10;;;;;;;;;9.75;8.75;;;;;16.51;49.77;101380.13;5070051;28;8792;-60
2021/12/23 03:37:36;;;;;;;;;7.25;7.25;;;;;16.47;49.82;101377.47;5070924;28;9780;-60
2021/12/23 03:40:01;;;;;;;;;9.25;9.25;;;;;16.51;49.67;101392.44;5070338;28;8767;-59
2021/12/23 03:42:27;;;;;;;;;8.50;8.00;;;;;16.48;49.62;101408.25;5074328;28;8767;-59
2021/12/23 03:44:52;;;;;;;;;10.00;9.00;;;;;16.53;49.40;101432.88;5074079;28;8811;-59
2021/12/23 03:47:17;;;;;;;;;9.75;9.50;;;;;16.52;49.60;101447.81;5073760;28;8760;-59
2021/12/23 03:49:43;;;;;;;;;9.00;9.00;;;;;16.47;49.58;101440.72;5073838;28;8771;-61
2021/12/23 03:52:10;;;;;;;;;10.75;9.50;;;;;16.48;49.58;101408.25;5074312;28;8898;-60
2021/12/23 03:54:36;;;;;;;;;8.00;8.00;;;;;16.46;49.92;101410.00;5073708;28;8772;-60
2021/12/23 03:57:01;;;;;;;;;8.00;8.00;;;;;16.47;49.77;101410.00;5073737;28;9627;-60
2021/12/23 03:59:47;;;;;;;;;9.50;9.50;;;;;16.47;49.73;101407.34;5074279;28;8779;-60
2021/12/23 04:02:13;;;;;;;;;11.00;9.75;;;;;16.44;49.57;101400.31;5073121;28;8759;-60
2021/12/23 04:04:38;;;;;;;;;10.25;9.25;;;;;16.41;49.56;101404.69;5073824;28;9654;-60
2021/12/23 04:07:04;;;;;;;;;10.00;10.00;;;;;16.45;49.78;101417.03;5073759;28;8792;-60
2021/12/23 04:09:29;;;;;;;;;12.50;12.50;;;;;16.51;49.56;101422.31;5073558;28;8837;-60
2021/12/23 04:11:54;;;;;;;;;12.50;11.00;;;;;16.49;49.80;101431.97;5073703;28;8772;-60
2021/12/23 04:14:20;;;;;;;;;14.00;11.00;;;;;16.36;49.78;101430.13;5074207;28;8760;-60
2021/12/23 04:16:45;;;;;;;;;9.00;9.00;;;;;16.46;49.79;101416.13;5073197;28;8882;-61
2021/12/23 04:19:11;;;;;;;;;11.50;11.50;;;;;16.49;49.57;101402.09;5073949;28;8767;-60
2021/12/23 04:21:38;;;;;;;;;12.25;12.25;;;;;16.49;49.87;101403.00;5074199;28;8767;-61
2021/12/23 04:24:04;;;;;;;;;10.75;8.75;;;;;16.46;49.68;101397.66;5072892;28;10391;-60
2021/12/23 04:26:30;;;;;;;;;9.00;9.00;;;;;16.48;49.49;101388.03;5073967;28;9738;-61
2021/12/23 04:28:55;;;;;;;;;10.75;10.50;;;;;16.48;49.60;101382.75;5073187;28;11381;-61
2021/12/23 04:31:24;;;;;;;;;12.75;11.50;;;;;16.50;49.67;101381.00;5072873;28;8870;-60
2021/12/23 04:33:53;;;;;;;;;13.00;12.25;;;;;16.54;49.39;101390.69;5073232;28;8775;-61
2021/12/23 04:36:19;;;;;;;;;12.00;11.50;;;;;16.48;49.62;101403.84;5072462;28;9640;-61
2021/12/23 04:38:46;;;;;;;;;10.50;10.50;;;;;16.50;49.49;101402.09;5073226;28;9469;-60
2021/12/23 04:41:13;;;;;;;;;11.00;11.00;;;;;16.48;49.67;101385.41;5073450;28;9679;-61
2021/12/23 04:43:39;;;;;;;;;12.25;12.25;;;;;16.50;49.75;101377.47;5072441;28;9694;-60
2021/12/23 04:46:05;;;;;;;;;10.00;10.00;;;;;16.52;49.72;101359.94;5073197;28;9824;-61
2021/12/23 04:48:32;;;;;;;;;10.50;10.50;;;;;16.50;49.74;101362.56;5073637;28;9695;-61
2021/12/23 04:50:58;;;;;;;;;11.25;9.75;;;;;16.51;49.34;101356.41;5071935;28;9766;-60
2021/12/23 04:53:23;;;;;;;;;12.50;11.50;;;;;16.49;49.62;101352.91;5072962;28;9923;-61
2021/12/23 04:55:49;;;;;;;;;13.25;11.00;;;;;16.48;49.58;101348.50;5073174;28;8776;-61
2021/12/23 04:58:14;;;;;;;;;9.00;9.00;;;;;16.50;49.57;101348.50;5072958;28;8805;-59
2021/12/23 05:00:42;;;;;;;;;11.50;9.25;;;;;16.47;49.37;101352.00;5072926;28;8770;-59
2021/12/23 05:03:07;;;;;;;;;9.00;8.50;;;;;16.42;49.67;101344.06;5073137;28;8822;-59
2021/12/23 05:05:32;;;;;;;;;13.00;13.00;;;;;16.46;49.72;101338.84;5071982;28;9684;-59
2021/12/23 05:07:58;;;;;;;;;11.25;11.25;;;;;16.46;49.62;101344.97;5072757;28;9653;-60
2021/12/23 05:10:25;;;;;;;;;14.25;13.25;;;;;16.51;49.53;101332.69;5072785;28;8764;-59
2021/12/23 05:12:50;;;;;;;;;13.25;13.25;;;;;16.52;49.59;101334.47;5071972;28;8787;-60
2021/12/23 05:15:17;;;;;;;;;12.50;12.00;;;;;16.50;49.42;101336.19;5072876;28;9767;-60
2021/12/23 05:17:44;;;;;;;;;10.75;10.75;;;;;16.45;49.37;101322.13;5072423;28;8779;-61
2021/12/23 05:20:11;;;;;;;;;9.75;9.25;;;;;16.48;49.29;101310.72;5072030;28;9833;-61
2021/12/23 05:22:36;;;;;;;;;9.75;9.75;;;;;16.45;49.03;101295.78;5072719;28;9864;-61
2021/12/23 05:25:02;;;;;;;;;11.25;11.25;;;;;16.47;49.53;101296.66;5072071;28;9790;-61
2021/12/23 05:27:28;;;;;;;;;12.75;12.50;;;;;16.50;49.28;101298.41;5072081;28;9530;-59
2021/12/23 05:29:53;;;;;;;;;14.25;14.00;;;;;16.55;49.42;101296.69;5071914;28;9759;-60
2021/12/23 05:32:19;;;;;;;;;12.75;12.75;;;;;16.44;49.52;101296.66;5072426;28;8788;-60
2021/12/23 05:34:44;;;;;;;;;15.25;15.00;;;;;16.46;49.73;101284.34;5070998;28;8799;-59
2021/12/23 05:37:12;;;;;;;;;13.25;13.25;;;;;16.48;49.28;101290.50;5072500;28;8760;-60
2021/12/23 05:39:37;;;;;;;;;11.75;11.75;;;;;16.47;49.43;101286.09;5071703;28;8778;-60
2021/12/23 05:42:04;;;;;;;;;16.00;15.25;;;;;16.47;49.49;101290.50;5071956;28;9695;-60
2021/12/23 05:44:30;;;;;;;;;13.00;11.25;;;;;16.46;49.30;101294.03;5072142;28;8980;-60
2021/12/23 05:46:56;;;;;;;;;11.75;9.00;;;;;16.40;49.63;101297.50;5071130;28;10004;-60
2021/12/23 05:49:21;;;;;;;;;14.50;13.25;;;;;16.38;49.41;101299.25;5071951;28;9772;-60
2021/12/23 05:51:47;;;;;;;;;15.00;11.75;;;;;16.40;49.63;101284.31;5071928;28;8760;-60
2021/12/23 05:54:12;;;;;;;;;13.25;11.25;;;;;16.43;49.56;101294.88;5070822;28;8849;-60
2021/12/23 05:56:37;;;;;;;;;12.00;12.00;;;;;16.46;49.33;101280.84;5072003;28;8808;-60
2021/12/23 05:59:03;;;;;;;;;13.25;13.25;;;;;16.50;49.37;101294.03;5071764;28;8826;-60
2021/12/23 06:01:28;;;;;;;;;10.50;10.50;;;;;16.51;49.19;101293.16;5071203;28;8784;-60
2021/12/23 06:03:53;;;;;;;;;13.50;11.00;;;;;16.40;49.09;101290.47;5071095;28;8832;-62
2021/12/23 06:06:19;;;;;;;;;12.00;12.00;;;;;16.44;49.45;101291.38;5071741;28;8780;-60
2021/12/23 06:08:44;;;;;;;;;12.25;12.25;;;;;16.43;49.26;101282.59;5070874;28;9547;-60
2021/12/23 06:11:09;;;;;;;;;14.00;12.75;;;;;16.44;49.56;101270.28;5071452;28;8780;-60
2021/12/23 06:13:35;;;;;;;;;13.00;11.75;;;;;16.47;49.39;101272.94;5071549;28;8772;-60
2021/12/23 06:16:00;;;;;;;;;13.00;11.25;;;;;16.43;49.53;101260.63;5070664;28;8875;-60
2021/12/23 06:18:26;;;;;;;;;12.75;11.25;;;;;16.47;49.23;101257.13;5071400;28;11383;-60
2021/12/23 06:20:51;;;;;;;;;13.25;10.75;;;;;16.42;49.34;101250.97;5071189;28;8776;-61
2021/12/23 06:23:17;;;;;;;;;12.25;12.25;;;;;16.41;49.61;101252.72;5070958;28;8820;-60
2021/12/23 06:25:42;;;;;;;;;13.25;11.25;;;;;16.43;49.34;101250.97;5071149;28;8764;-61
2021/12/23 06:28:08;;;;;;;;;11.25;11.25;;;;;16.43;49.52;101266.78;5071269;28;9541;-61
2021/12/23 06:30:33;;;;;;;;;11.00;8.25;;;;;16.42;49.22;101279.97;5070688;28;8764;-60
2021/12/23 06:32:59;;;;;;;;;13.25;13.25;;;;;16.38;49.58;101270.28;5070887;28;8792;-61
2021/12/23 06:35:30;;;;;;;;;11.00;11.00;;;;;16.41;49.44;101272.91;5071446;28;8803;-60
2021/12/23 06:37:56;;;;;;;;;13.00;11.00;;;;;16.42;49.60;101270.28;5070392;28;8763;-61
2021/12/23 06:40:22;;;;;;;;;15.75;13.75;;;;;16.48;49.73;101268.56;5071257;28;9688;-62
2021/12/23 06:42:48;;;;;;;;;19.25;14.75;;;;;16.52;50.37;101265.06;5070419;28;9848;-61
2021/12/23 06:45:15;;;;;;;;;16.50;15.50;;;;;16.52;50.98;101246.59;5070706;28;9982;-61
2021/12/23 06:47:42;;;;;;;;;15.00;14.00;;;;;16.63;51.76;101255.47;5070487;28;11349;-61
2021/12/23 06:50:09;;;;;;;;;14.25;14.25;;;;;16.63;52.16;101242.28;5070448;28;10006;-60
2021/12/23 06:52:36;;;;;;;;;15.75;15.25;;;;;16.68;52.45;101243.19;5071139;28;9808;-60
2021/12/23 06:55:02;;;;;;;;;17.00;15.00;;;;;16.70;52.61;101228.25;5070951;28;10031;-60
2021/12/23 06:57:28;;;;;;;;;16.75;14.25;;;;;16.68;53.35;101225.63;5069884;28;10715;-61
2021/12/23 06:59:54;;;;;;;;;14.75;13.25;;;;;16.72;54.43;101210.69;5070657;28;9783;-60
2021/12/23 07:02:19;;;;;;;;;17.50;14.25;;;;;16.75;54.97;101215.97;5070915;28;8786;-60
2021/12/23 07:04:45;;;;;;;;;14.50;13.25;;;;;16.77;55.64;101233.53;5069956;28;9581;-65
2021/12/23 07:07:12;;;;;;;;;20.25;18.50;;;;;16.74;56.06;101246.72;5071192;28;8767;-60
2021/12/23 07:09:40;;;;;;;;;18.00;16.00;;;;;16.74;56.34;101251.09;5068660;28;9861;-59
2021/12/23 07:12:07;;;;;;;;;18.25;18.25;;;;;16.69;56.39;101247.56;5063649;28;10625;-59
2021/12/23 07:14:33;;;;;;;;;18.50;15.75;;;;;16.65;56.85;101233.50;5070645;28;9951;-60
2021/12/23 07:16:58;;;;;;;;;16.25;16.25;;;;;16.59;56.86;101235.25;5055122;28;9956;-60
2021/12/23 07:19:24;;;;;;;;;20.50;20.50;;;;;16.55;57.07;101244.84;5054071;28;8809;-59
2021/12/23 07:21:49;;;;;;;;;17.75;17.25;;;;;16.59;56.61;101245.78;5064825;28;9590;-60
2021/12/23 07:24:15;;;;;;;;;20.75;20.00;;;;;16.56;56.59;101243.09;5074384;28;8861;-59
2021/12/23 07:26:40;;;;;;;;;14.25;12.50;;;;;16.52;56.52;101242.22;5073039;28;8760;-59
2021/12/23 07:29:05;;;;;;;;;15.25;13.00;;;;;16.56;56.29;101240.47;5076767;28;8802;-59
2021/12/23 07:31:31;;;;;;;;;18.75;17.25;;;;;16.53;56.14;101240.47;5073398;28;8817;-60
2021/12/23 07:33:56;;;;;;;;;16.25;15.25;;;;;16.50;56.61;101245.69;5073293;28;8771;-59
2021/12/23 07:36:24;;;;;;;;;20.50;18.50;;;;;16.49;56.12;101236.06;5074176;28;8799;-59
2021/12/23 07:38:52;;;;;;;;;13.75;13.75;;;;;16.46;56.58;101234.25;5073544;28;8823;-60
2021/12/23 07:41:18;;;;;;;;;13.00;11.75;;;;;16.48;55.98;101226.38;5071454;28;9892;-60
2021/12/23 07:43:56;;;;;;;;;19.25;18.25;;;;;16.50;56.20;101225.50;5073304;28;9888;-59
2021/12/23 07:46:21;;;;;;;;;13.75;12.50;;;;;16.49;56.10;101207.06;5071054;28;8791;-58
2021/12/23 07:48:46;;;;;;;;;15.00;12.00;;;;;16.54;55.80;101210.56;5073420;28;9784;-60
2021/12/23 07:51:12;;;;;;;;;12.75;12.00;;;;;16.56;55.62;101207.13;5073400;28;8802;-61
2021/12/23 07:53:38;;;;;;;;;15.25;14.75;;;;;16.56;55.39;101201.84;5073374;28;8791;-59
2021/12/23 07:56:03;;;;;;;;;11.75;11.75;;;;;16.58;55.38;101201.84;5081570;28;9846;-59
2021/12/23 07:58:28;;;;;;;;;15.50;14.50;;;;;16.54;55.55;101205.31;5082275;28;8791;-60
2021/12/23 08:00:54;;;;;;;;;11.00;10.50;;;;;16.57;55.25;101195.69;5070864;28;8941;-59
2021/12/23 08:03:19;;;;;;;;;14.00;14.00;;;;;16.50;55.03;101174.53;5074069;28;8807;-59
2021/12/23 08:05:44;;;;;;;;;16.25;11.00;;;;;16.49;55.39;101181.59;5073649;28;8763;-60
2021/12/23 08:08:10;;;;;;;;;15.75;15.00;;;;;16.49;55.34;101180.72;5070798;28;8790;-59
2021/12/23 08:10:36;;;;;;;;;13.25;13.25;;;;;16.52;55.03;101185.97;5073836;28;8814;-59
2021/12/23 08:13:01;;;;;;;;;16.50;15.25;;;;;16.54;55.07;101178.94;5071640;28;8776;-60
2021/12/23 08:15:27;;;;;;;;;15.25;14.25;;;;;16.50;55.00;101166.63;5072848;28;9761;-59
2021/12/23 08:17:52;;;;;;;;;15.25;14.00;;;;;16.54;54.85;101165.75;5073201;28;8898;-59
2021/12/23 08:20:20;;;;;;;;;12.25;12.25;;;;;16.54;54.59;101168.41;5073804;28;9515;-59
2021/12/23 08:22:46;;;;;;;;;16.00;13.00;;;;;16.53;54.67;101162.28;5070270;28;8814;-59
2021/12/23 08:25:12;;;;;;;;;19.25;13.75;;;;;16.51;54.81;101166.66;5073698;28;9681;-59
2021/12/23 08:27:38;;;;;;;;;13.25;12.50;;;;;16.50;54.65;101146.44;5072988;28;8792;-60
2021/12/23 08:30:08;;;;;;;;;20.25;18.00;;;;;16.51;54.73;101142.03;5072878;28;9775;-59
2021/12/23 08:32:33;;;;;;;;;14.50;14.50;;;;;16.48;54.68;101142.03;5071219;28;9808;-59
2021/12/23 08:34:59;;;;;;;;;17.00;13.25;;;;;16.47;54.63;101132.38;5072626;28;9807;-59
2021/12/23 08:37:24;;;;;;;;;15.25;14.75;;;;;16.54;54.64;101131.50;5071984;28;9219;-59
2021/12/23 08:39:51;;;;;;;;;15.75;12.00;;;;;16.47;54.60;101135.88;5073183;28;8832;-59
2021/12/23 08:42:17;;;;;;;;;12.25;12.25;;;;;16.52;54.64;101138.53;5071253;28;9729;-59
2021/12/23 08:44:43;;;;;;;;;12.50;12.00;;;;;16.52;54.27;101149.97;5072121;28;8795;-59
2021/12/23 08:47:09;;;;;;;;;13.75;12.25;;;;;16.49;54.61;101143.81;5073038;28;9624;-58
2021/12/23 08:49:34;;;;;;;;;13.75;13.25;;;;;16.51;54.31;101137.66;5071967;28;8806;-58
2021/12/23 08:52:00;;;;;;;;;17.00;15.75;;;;;16.55;54.30;101131.50;5070742;28;9680;-59
2021/12/23 08:54:28;;;;;;;;;16.75;14.75;;;;;16.63;54.23;101119.25;5073077;28;8822;-58
2021/12/23 08:56:53;;;;;;;;;11.75;10.00;;;;;16.70;53.82;101109.59;5086821;28;8793;-60
2021/12/23 08:59:18;;;;;;;;;12.00;11.50;;;;;16.67;53.96;101110.47;5076325;28;10592;-59
2021/12/23 09:01:45;;;;;;;;;11.50;11.25;;;;;16.66;53.70;101098.16;5071102;28;8804;-59
2021/12/23 09:04:11;;;;;;;;;12.50;11.00;;;;;16.67;53.82;101096.41;5071730;28;8783;-59
2021/12/23 09:06:36;;;;;;;;;14.50;13.00;;;;;16.66;53.71;101092.00;5071511;28;9758;-59
2021/12/23 09:09:03;;;;;;;;;10.75;10.75;;;;;16.67;53.57;101088.50;5071954;28;8894;-59
2021/12/23 09:11:28;;;;;;;;;10.50;9.50;;;;;16.65;53.62;101091.13;5070368;28;8799;-61
2021/12/23 09:13:54;;;;;;;;;16.50;15.50;;;;;16.67;53.75;101078.84;5072465;28;9543;-60
2021/12/23 09:16:20;;;;;;;;;15.25;13.50;;;;;16.62;53.74;101080.59;5072698;28;9679;-60
2021/12/23 09:18:45;;;;;;;;;13.50;13.00;;;;;16.66;53.62;101078.84;5071267;28;8788;-60
2021/12/23 09:21:12;;;;;;;;;18.00;11.25;;;;;16.62;53.61;101071.81;5070470;28;8804;-60
2021/12/23 09:23:39;;;;;;;;;9.75;9.75;;;;;16.63;53.37;101063.03;5072011;28;8779;-60
2021/12/23 09:26:09;;;;;;;;;14.50;13.50;;;;;16.68;53.26;101061.28;5071835;28;9785;-59
2021/12/23 09:28:57;;;;;;;;;10.50;9.25;;;;;16.65;53.19;101056.84;5071889;28;9713;-59
2021/12/23 09:34:07;;;;;;;;;17.25;13.00;;;;;16.63;53.25;101060.38;5071911;28;9431;-59
2021/12/23 09:36:33;;;;;;;;;11.75;9.75;;;;;16.68;53.26;101061.28;5071365;28;9691;-60
2021/12/23 09:39:03;;;;;;;;;13.75;12.25;;;;;16.64;53.33;101062.16;5070140;28;8823;-59
2021/12/23 09:41:29;;;;;;;;;11.25;11.25;;;;;16.66;52.98;101063.91;5070637;28;8869;-59
2021/12/23 09:43:58;;;;;;;;;11.00;10.75;;;;;16.65;53.11;101063.88;5071555;28;9634;-60
2021/12/23 09:46:24;;;;;;;;;12.25;12.00;;;;;16.61;53.15;101052.47;5071299;28;9607;-60
2021/12/23 09:48:50;;;;;;;;;9.00;8.25;;;;;16.67;52.98;101055.13;5071323;28;9726;-59
2021/12/23 09:51:18;;;;;;;;;12.00;12.00;;;;;16.59;52.88;101046.31;5066699;28;8779;-59
2021/12/23 09:53:46;;;;;;;;;13.50;13.00;;;;;16.69;53.08;101058.63;5070838;28;10316;-60
2021/12/23 09:56:13;;;;;;;;;16.25;12.25;;;;;16.70;52.91;101056.88;5080668;28;9875;-59
2021/12/23 09:58:39;;;;;;;;;12.25;12.25;;;;;16.67;52.62;101049.84;5081925;28;10535;-59
2021/12/23 10:01:06;;;;;;;;;14.75;14.00;;;;;16.69;52.83;101045.44;5069266;28;9721;-59
2021/12/23 10:03:33;;;;;;;;;11.75;9.25;;;;;16.67;52.74;101033.16;5069234;28;8807;-59
2021/12/23 10:05:59;;;;;;;;;10.50;10.00;;;;;16.69;52.51;101026.09;5069850;28;9624;-59
2021/12/23 10:08:27;;;;;;;;;13.75;10.75;;;;;16.61;52.67;101010.28;5070530;28;9855;-60
2021/12/23 10:10:58;;;;;;;;;10.25;10.25;;;;;16.69;52.37;101029.63;5069429;28;9660;-60
2021/12/23 10:38:43;;;;;;;;;9.00;9.00;;;;;16.74;52.46;101011.16;5033030;28;9636;-58
2021/12/23 10:41:10;;;;;;;;;9.00;9.00;;;;;16.73;52.21;101004.13;5068497;28;10424;-59
2021/12/23 10:43:44;;;;;;;;;12.50;11.00;;;;;16.73;52.09;100988.31;5070272;28;9571;-60
2021/12/23 10:46:16;;;;;;;;;10.50;10.25;;;;;16.68;52.43;100980.44;5070618;28;9708;-59
2021/12/23 10:49:13;;;;;;;;;13.50;11.50;;;;;16.67;52.23;100969.88;5069887;28;9824;-59
2021/12/23 10:52:29;;;;;;;;;11.25;9.00;;;;;16.68;52.26;100972.53;5068822;28;9922;-59
2021/12/23 11:00:24;;;;;;;;;10.50;9.25;;;;;16.72;52.08;100983.94;5050600;28;9453;-60
2021/12/23 11:03:15;;;;;;;;;12.25;9.75;;;;;16.76;51.91;100993.56;5047862;28;9573;-60
2021/12/23 11:05:49;;;;;;;;;8.00;8.00;;;;;16.77;52.07;100996.22;5050353;28;9557;-60
2021/12/23 11:27:56;;;;;;;;;8.50;8.25;;;;;16.82;52.07;100943.47;5050353;28;9593;-60
2021/12/23 11:41:07;;;;;;;;;10.00;9.25;;;;;16.79;52.33;100909.22;5048285;28;9988;-59
2021/12/23 11:46:10;;;;;;;;;10.00;10.00;;;;;16.85;52.20;100894.25;5042356;28;10417;-60
2021/12/23 11:48:41;;;;;;;;;9.00;9.00;;;;;16.84;52.18;100886.34;5050178;28;9585;-60
2021/12/23 11:51:08;;;;;;;;;10.25;9.75;;;;;16.85;52.05;100867.00;5047509;28;9777;-60
2021/12/23 11:53:35;;;;;;;;;9.00;9.00;;;;;16.84;52.27;100858.22;5049441;28;9549;-60
2021/12/23 11:56:03;;;;;;;;;9.00;9.00;;;;;16.87;52.18;100858.19;5049596;28;9649;-60
2021/12/23 11:58:28;;;;;;;;;10.75;10.75;;;;;16.85;52.50;100854.69;5050039;28;9489;-60
2021/12/23 12:01:22;;;;;;;;;7.75;7.75;;;;;16.87;52.19;100858.19;5040388;28;9569;-61
2021/12/23 12:03:54;;;;;;;;;9.00;9.00;;;;;16.89;52.41;100851.16;5050496;28;8999;-60
2021/12/23 12:06:23;;;;;;;;;11.00;11.00;;;;;16.83;52.51;100851.16;5053706;28;9601;-60
2021/12/23 12:09:08;;;;;;;;;8.75;8.75;;;;;16.85;52.46;100857.34;5053376;28;9591;-60
2021/12/23 12:11:33;;;;;;;;;10.75;9.25;;;;;16.83;52.41;100853.81;5045162;28;9605;-59
2021/12/23 12:13:58;;;;;;;;;9.25;8.25;;;;;16.86;52.36;100850.31;5053119;28;9545;-59
2021/12/23 12:16:36;;;;;;;;;10.50;9.50;;;;;16.84;52.65;100842.38;5053847;28;8817;-60
2021/12/23 12:19:04;;;;;;;;;11.50;11.50;;;;;16.84;52.76;100838.88;5053308;28;8790;-60
2021/12/23 12:21:35;;;;;;;;;9.00;8.00;;;;;16.80;52.76;100831.84;5051523;28;9637;-60
2021/12/23 12:24:16;;;;;;;;;11.50;9.00;;;;;16.81;52.87;100828.34;5053218;28;9594;-60
2021/12/23 12:26:54;;;;;;;;;9.50;8.00;;;;;16.79;52.87;100820.44;5053416;28;9673;-61
2021/12/23 12:29:25;;;;;;;;;9.00;8.00;;;;;16.77;52.78;100818.69;5052096;28;9620;-60
2021/12/23 12:31:50;;;;;;;;;11.25;8.25;;;;;16.83;52.65;100813.41;5052206;28;9430;-60
2021/12/23 12:34:19;;;;;;;;;11.75;11.00;;;;;16.79;52.92;100814.31;5053147;28;9536;-60
2021/12/23 12:36:50;;;;;;;;;8.25;8.00;;;;;16.80;52.82;100819.53;5052340;28;8786;-60